Time;durP1;ratioP1;P1;durP2;ratioP2;P2;SDS_P1;SDS_P2;PMS_P1;PMS_P2;Temp;Humidity;BMP_temperature;BMP_pressure;BME280_temperature;BME280_humidity;BME280_pressure;Samples;Min_cycle;Max_cycle;Signal;HPM_P1;HPM_P2
2024/03/17 00:04:30;;;;;;;8.82;7.35;;;;;;;;;;10123785;28;20048;-73
2024/03/17 00:09:24;;;;;;;9.77;6.57;;;;;;;;;;10124540;28;20086;-74
2024/03/17 00:14:21;;;;;;;7.07;5.97;;;;;;;;;;10127629;28;20114;-74
2024/03/17 00:19:14;;;;;;;8.93;6.80;;;;;;;;;;10118597;28;20052;-74
2024/03/17 00:24:08;;;;;;;9.52;6.57;;;;;;;;;;10128698;28;20158;-74
2024/03/17 00:29:03;;;;;;;7.28;6.55;;;;;;;;;;10121370;28;20052;-74
2024/03/17 00:33:54;;;;;;;8.48;7.30;;;;;;;;;;10127887;28;20063;-74
2024/03/17 00:38:47;;;;;;;8.73;6.78;;;;;;;;;;10125422;28;20050;-74
2024/03/17 00:43:40;;;;;;;8.45;6.43;;;;;;;;;;10126718;28;20059;-74
2024/03/17 00:48:32;;;;;;;7.63;6.60;;;;;;;;;;10127679;28;20055;-74
2024/03/17 00:53:29;;;;;;;7.18;6.47;;;;;;;;;;10127867;28;20048;-73
2024/03/17 00:58:21;;;;;;;13.52;7.90;;;;;;;;;;10126481;28;20063;-74
2024/03/17 01:03:15;;;;;;;9.68;7.38;;;;;;;;;;10126656;28;20051;-74
2024/03/17 01:08:07;;;;;;;8.20;7.22;;;;;;;;;;10126467;28;20086;-74
2024/03/17 01:12:59;;;;;;;9.82;7.00;;;;;;;;;;10125383;28;20076;-74
2024/03/17 01:17:52;;;;;;;9.02;6.68;;;;;;;;;;10126719;28;20094;-74
2024/03/17 01:22:45;;;;;;;8.88;6.55;;;;;;;;;;10126659;28;20045;-73
2024/03/17 01:27:37;;;;;;;8.05;6.82;;;;;;;;;;10116372;28;20072;-74
2024/03/17 01:32:30;;;;;;;10.75;8.02;;;;;;;;;;10127390;28;20044;-74
2024/03/17 01:37:24;;;;;;;8.35;7.18;;;;;;;;;;10126656;28;20049;-74
2024/03/17 01:42:17;;;;;;;7.63;6.38;;;;;;;;;;10119698;28;20125;-75
2024/03/17 01:47:10;;;;;;;19.20;8.20;;;;;;;;;;10123806;28;20052;-75
2024/03/17 01:52:03;;;;;;;10.52;7.03;;;;;;;;;;10123898;28;20518;-75
2024/03/17 01:56:55;;;;;;;7.13;6.40;;;;;;;;;;10121583;28;20048;-75
2024/03/17 02:01:47;;;;;;;6.32;5.70;;;;;;;;;;10124670;28;20550;-76
2024/03/17 02:06:41;;;;;;;6.32;5.70;;;;;;;;;;10117956;28;20047;-75
2024/03/17 02:11:34;;;;;;;9.32;7.32;;;;;;;;;;10124894;28;20071;-75
2024/03/17 02:16:26;;;;;;;7.80;7.00;;;;;;;;;;10122333;28;20059;-75
2024/03/17 02:21:20;;;;;;;8.27;7.47;;;;;;;;;;10122183;28;20048;-75
2024/03/17 02:26:13;;;;;;;8.85;6.88;;;;;;;;;;10124281;28;20393;-75
2024/03/17 02:31:07;;;;;;;10.55;7.90;;;;;;;;;;10123311;28;20094;-75
2024/03/17 02:35:59;;;;;;;7.57;6.78;;;;;;;;;;10122040;28;20063;-75
2024/03/17 02:40:51;;;;;;;10.68;8.68;;;;;;;;;;10124932;28;20522;-75
2024/03/17 02:45:44;;;;;;;14.70;12.82;;;;;;;;;;10121107;28;20048;-75
2024/03/17 02:50:37;;;;;;;12.32;11.02;;;;;;;;;;10121197;28;20393;-75
2024/03/17 02:55:29;;;;;;;6.15;5.55;;;;;;;;;;10122544;28;20595;-76
2024/03/17 03:00:22;;;;;;;6.80;5.53;;;;;;;;;;10122835;28;20136;-75
2024/03/17 03:05:15;;;;;;;9.90;8.05;;;;;;;;;;10118580;28;20060;-75
2024/03/17 03:10:10;;;;;;;10.32;8.18;;;;;;;;;;10121784;28;20143;-75
2024/03/17 03:15:02;;;;;;;9.75;8.15;;;;;;;;;;10123025;28;20044;-76
2024/03/17 03:19:55;;;;;;;7.07;6.35;;;;;;;;;;10121970;28;20464;-75
2024/03/17 03:24:47;;;;;;;6.13;5.57;;;;;;;;;;10121661;28;20056;-75
2024/03/17 03:29:40;;;;;;;7.30;6.50;;;;;;;;;;10113769;28;20048;-75
2024/03/17 03:34:33;;;;;;;9.52;6.10;;;;;;;;;;10113518;28;20045;-76
2024/03/17 03:39:30;;;;;;;7.03;6.30;;;;;;;;;;10118855;28;20036;-76
2024/03/17 03:44:22;;;;;;;7.72;6.32;;;;;;;;;;10118428;28;20045;-75
2024/03/17 03:49:14;;;;;;;9.98;6.45;;;;;;;;;;10126021;28;20052;-76
2024/03/17 03:54:07;;;;;;;7.65;5.85;;;;;;;;;;10128474;28;20878;-75
2024/03/17 03:59:00;;;;;;;7.13;6.43;;;;;;;;;;10128863;28;20080;-76
2024/03/17 04:03:52;;;;;;;9.20;7.43;;;;;;;;;;10129333;28;20056;-75
2024/03/17 04:08:44;;;;;;;7.40;6.57;;;;;;;;;;10130676;28;20048;-75
2024/03/17 04:13:38;;;;;;;9.05;6.88;;;;;;;;;;10145154;28;20052;-75
2024/03/17 04:18:30;;;;;;;10.35;6.50;;;;;;;;;;10130271;28;20055;-75
2024/03/17 04:23:22;;;;;;;10.98;6.47;;;;;;;;;;10128130;28;20133;-76
2024/03/17 04:28:15;;;;;;;7.72;6.40;;;;;;;;;;10127182;28;20067;-75
2024/03/17 04:33:07;;;;;;;9.00;7.07;;;;;;;;;;10129668;28;20390;-76
2024/03/17 04:37:59;;;;;;;9.25;7.35;;;;;;;;;;10128994;28;20052;-75
2024/03/17 04:42:52;;;;;;;11.98;8.73;;;;;;;;;;10128542;28;20105;-75
2024/03/17 04:47:47;;;;;;;11.60;7.10;;;;;;;;;;10127759;28;20414;-75
2024/03/17 04:52:39;;;;;;;8.98;7.60;;;;;;;;;;10126575;28;20056;-75
2024/03/17 04:57:32;;;;;;;14.05;8.63;;;;;;;;;;10124949;28;20052;-75
2024/03/17 05:02:24;;;;;;;13.55;10.23;;;;;;;;;;10127443;28;20106;-75
2024/03/17 05:07:17;;;;;;;12.68;8.63;;;;;;;;;;10126017;28;20044;-75
2024/03/17 05:12:10;;;;;;;12.52;9.15;;;;;;;;;;10126715;28;20063;-76
2024/03/17 05:17:02;;;;;;;10.38;9.35;;;;;;;;;;10128256;28;20189;-75
2024/03/17 05:21:55;;;;;;;11.60;9.32;;;;;;;;;;10119697;28;20413;-75
2024/03/17 05:26:48;;;;;;;12.23;9.07;;;;;;;;;;10125862;28;20416;-75
2024/03/17 05:31:42;;;;;;;12.63;11.32;;;;;;;;;;10126299;28;20045;-75
2024/03/17 05:36:35;;;;;;;13.95;8.85;;;;;;;;;;10116489;28;20044;-75
2024/03/17 05:41:28;;;;;;;23.20;20.75;;;;;;;;;;10126056;28;20135;-76
2024/03/17 05:46:20;;;;;;;12.07;8.82;;;;;;;;;;10117882;28;20041;-76
2024/03/17 05:51:16;;;;;;;11.27;9.57;;;;;;;;;;10117981;28;20127;-76
2024/03/17 05:56:09;;;;;;;9.35;8.30;;;;;;;;;;10127895;28;20062;-76
2024/03/17 06:01:08;;;;;;;15.18;13.77;;;;;;;;;;10129368;28;20087;-75
2024/03/17 06:06:10;;;;;;;11.65;9.38;;;;;;;;;;10130174;28;20052;-76
2024/03/17 06:11:04;;;;;;;17.50;9.73;;;;;;;;;;10127970;28;20404;-75
2024/03/17 06:16:00;;;;;;;10.30;9.13;;;;;;;;;;10127968;28;20094;-75
2024/03/17 06:20:52;;;;;;;10.40;7.53;;;;;;;;;;10117389;28;20044;-75
2024/03/17 06:25:46;;;;;;;10.65;9.02;;;;;;;;;;10126975;28;20063;-76
2024/03/17 06:30:38;;;;;;;8.50;7.03;;;;;;;;;;10127171;28;20064;-75
2024/03/17 06:35:30;;;;;;;7.00;6.25;;;;;;;;;;10123105;28;20044;-80
2024/03/17 06:40:23;;;;;;;9.93;6.68;;;;;;;;;;10126804;28;20051;-78
2024/03/17 06:45:17;;;;;;;6.43;5.82;;;;;;;;;;10126640;28;20424;-78
2024/03/17 06:50:11;;;;;;;10.07;5.65;;;;;;;;;;10125691;28;20044;-78
2024/03/17 06:55:06;;;;;;;8.38;6.43;;;;;;;;;;10126291;28;20475;-79
2024/03/17 06:59:59;;;;;;;9.68;7.63;;;;;;;;;;10121648;28;20406;-79
2024/03/17 07:04:51;;;;;;;9.80;7.90;;;;;;;;;;10122344;28;20122;-78
2024/03/17 07:09:44;;;;;;;13.20;10.25;;;;;;;;;;10125706;28;20049;-78
2024/03/17 07:14:36;;;;;;;20.38;12.85;;;;;;;;;;10102667;28;20055;-79
2024/03/17 07:19:30;;;;;;;11.73;10.50;;;;;;;;;;10118901;28;20128;-79
2024/03/17 07:24:23;;;;;;;16.42;13.45;;;;;;;;;;10124402;28;20098;-79
2024/03/17 07:29:16;;;;;;;11.55;8.45;;;;;;;;;;10123917;28;20062;-78
2024/03/17 07:34:09;;;;;;;12.68;10.07;;;;;;;;;;10125782;28;20413;-78
2024/03/17 07:39:02;;;;;;;12.40;10.27;;;;;;;;;;10118898;28;20080;-78
2024/03/17 07:43:54;;;;;;;12.50;11.18;;;;;;;;;;10123305;28;20051;-78
2024/03/17 07:48:47;;;;;;;11.30;10.07;;;;;;;;;;10120989;28;20045;-76
2024/03/17 07:53:44;;;;;;;9.93;8.93;;;;;;;;;;10111299;28;20041;-77
2024/03/17 07:58:39;;;;;;;12.07;10.75;;;;;;;;;;10124980;28;20048;-77
2024/03/17 08:03:33;;;;;;;11.18;10.02;;;;;;;;;;10125205;28;20058;-77
2024/03/17 08:08:26;;;;;;;12.60;9.88;;;;;;;;;;10124853;28;20394;-77
2024/03/17 08:13:18;;;;;;;11.23;9.63;;;;;;;;;;10119805;28;20056;-77
2024/03/17 08:18:14;;;;;;;13.18;9.70;;;;;;;;;;10109264;28;20049;-77
2024/03/17 08:23:08;;;;;;;11.50;10.10;;;;;;;;;;10119487;28;20067;-76
2024/03/17 08:28:04;;;;;;;11.48;10.35;;;;;;;;;;10124276;28;20124;-76
2024/03/17 08:32:57;;;;;;;14.68;10.57;;;;;;;;;;10122707;28;20047;-77
2024/03/17 08:37:51;;;;;;;9.63;7.60;;;;;;;;;;10130829;28;20048;-77
2024/03/17 08:42:43;;;;;;;12.52;9.13;;;;;;;;;;10130667;28;20056;-77
2024/03/17 08:47:36;;;;;;;8.63;7.45;;;;;;;;;;10131423;28;20079;-76
2024/03/17 08:52:28;;;;;;;9.25;6.80;;;;;;;;;;10131393;28;20404;-76
2024/03/17 08:57:21;;;;;;;7.28;6.57;;;;;;;;;;10129907;28;20068;-76
2024/03/17 09:02:14;;;;;;;10.48;7.30;;;;;;;;;;10129357;28;20120;-76
2024/03/17 09:07:07;;;;;;;7.30;6.03;;;;;;;;;;10130001;28;20541;-77
2024/03/17 09:12:00;;;;;;;10.73;7.05;;;;;;;;;;10129914;28;20049;-77
2024/03/17 09:16:52;;;;;;;10.35;9.35;;;;;;;;;;10130427;28;20455;-77
2024/03/17 09:21:45;;;;;;;10.23;8.60;;;;;;;;;;10128876;28;20089;-78
2024/03/17 09:26:39;;;;;;;10.48;9.43;;;;;;;;;;10127909;28;20102;-78
2024/03/17 09:31:35;;;;;;;9.48;7.22;;;;;;;;;;10111236;28;20056;-79
2024/03/17 09:36:28;;;;;;;14.85;8.48;;;;;;;;;;10129514;28;20079;-77
2024/03/17 09:41:42;;;;;;;9.25;7.68;;;;;;;;;;10128852;28;20057;-76
2024/03/17 09:46:36;;;;;;;11.00;8.23;;;;;;;;;;10124432;28;20060;-77
2024/03/17 09:51:28;;;;;;;10.32;8.40;;;;;;;;;;10123507;28;20056;-77
2024/03/17 09:56:21;;;;;;;18.02;9.00;;;;;;;;;;10124533;28;20045;-77
2024/03/17 10:01:14;;;;;;;11.48;8.48;;;;;;;;;;10127298;28;20575;-77
2024/03/17 10:06:06;;;;;;;12.60;8.95;;;;;;;;;;10128542;28;20055;-77
2024/03/17 10:10:59;;;;;;;10.60;9.57;;;;;;;;;;10127572;28;20532;-79
2024/03/17 10:15:51;;;;;;;11.40;9.38;;;;;;;;;;10127839;28;20052;-77
2024/03/17 10:20:45;;;;;;;10.45;9.35;;;;;;;;;;10124068;28;20052;-77
2024/03/17 10:25:40;;;;;;;9.88;8.88;;;;;;;;;;10127071;28;20056;-77
2024/03/17 10:30:33;;;;;;;11.93;9.63;;;;;;;;;;10127077;28;20057;-77
2024/03/17 10:35:40;;;;;;;14.77;9.60;;;;;;;;;;10127105;28;20076;-77
2024/03/17 10:40:38;;;;;;;15.18;9.45;;;;;;;;;;10118779;28;20049;-76
2024/03/17 10:45:38;;;;;;;11.38;9.55;;;;;;;;;;10126376;28;20064;-77
2024/03/17 10:50:31;;;;;;;9.82;8.80;;;;;;;;;;10125844;28;20512;-77
2024/03/17 10:55:25;;;;;;;8.40;7.47;;;;;;;;;;10126076;28;20040;-77
2024/03/17 11:00:19;;;;;;;15.65;9.55;;;;;;;;;;10125525;28;20040;-77
2024/03/17 11:05:34;;;;;;;11.65;10.32;;;;;;;;;;10125834;28;20048;-76
2024/03/17 11:10:29;;;;;;;9.30;8.30;;;;;;;;;;10107075;28;20508;-77
2024/03/17 11:15:58;;;;;;;14.95;9.80;;;;;;;;;;10125623;28;20055;-77
2024/03/17 11:20:44;;;;;;;11.48;9.25;;;;;;;;;;10101114;28;20061;-76
2024/03/17 11:25:35;;;;;;;10.90;9.23;;;;;;;;;;10082456;28;20099;-76
2024/03/17 11:30:47;;;;;;;10.77;9.77;;;;;;;;;;10073737;28;20059;-77
2024/03/17 11:35:41;;;;;;;10.38;9.20;;;;;;;;;;10070529;28;20137;-77
2024/03/17 11:40:34;;;;;;;13.43;9.82;;;;;;;;;;10086785;28;20049;-76
2024/03/17 11:45:27;;;;;;;13.13;10.15;;;;;;;;;;10080757;28;20147;-76
2024/03/17 11:50:19;;;;;;;15.98;10.95;;;;;;;;;;10083153;28;20045;-77
2024/03/17 11:55:40;;;;;;;15.70;10.68;;;;;;;;;;10077569;28;20053;-77
2024/03/17 12:00:33;;;;;;;13.85;12.50;;;;;;;;;;10071099;28;20045;-76
2024/03/17 12:05:27;;;;;;;14.93;13.40;;;;;;;;;;10074741;28;20049;-76
2024/03/17 12:10:20;;;;;;;12.98;11.68;;;;;;;;;;10082904;28;20057;-78
2024/03/17 12:15:21;;;;;;;11.95;9.95;;;;;;;;;;10074520;28;20049;-76
2024/03/17 12:20:21;;;;;;;12.90;11.27;;;;;;;;;;10069369;28;20055;-77
2024/03/17 12:25:20;;;;;;;14.57;12.57;;;;;;;;;;10085647;28;20497;-78
2024/03/17 12:30:14;;;;;;;14.90;13.40;;;;;;;;;;10082679;28;20548;-83
2024/03/17 12:35:13;;;;;;;16.58;12.82;;;;;;;;;;10083399;28;20509;-81
2024/03/17 12:40:07;;;;;;;15.90;14.20;;;;;;;;;;10084529;28;20045;-81
2024/03/17 12:45:03;;;;;;;16.00;14.27;;;;;;;;;;10072719;28;20044;-80
2024/03/17 12:49:59;;;;;;;17.35;14.65;;;;;;;;;;10075481;28;20062;-80
2024/03/17 13:00:34;;;;;;;17.27;14.55;;;;;;;;;;10073728;28;20053;-83
2024/03/17 13:05:29;;;;;;;18.08;14.82;;;;;;;;;;10088209;28;20060;-79
2024/03/17 13:10:22;;;;;;;14.85;13.25;;;;;;;;;;10084388;28;20071;-88
2024/03/17 13:15:17;;;;;;;16.80;14.48;;;;;;;;;;10083755;28;20560;-87
2024/03/17 13:20:16;;;;;;;18.40;13.57;;;;;;;;;;10084576;28;20076;-86
2024/03/17 13:25:34;;;;;;;16.60;14.90;;;;;;;;;;10107073;28;20188;-81
2024/03/17 13:30:28;;;;;;;20.53;15.93;;;;;;;;;;10122839;28;20136;-77
2024/03/17 13:35:23;;;;;;;17.42;15.55;;;;;;;;;;10115444;28;20400;-78
2024/03/17 13:40:18;;;;;;;17.40;14.93;;;;;;;;;;10129610;28;20052;-77
2024/03/17 13:45:13;;;;;;;16.77;15.07;;;;;;;;;;10128994;28;20561;-85
2024/03/17 13:50:10;;;;;;;17.55;15.57;;;;;;;;;;10132664;28;20050;-80
2024/03/17 13:55:08;;;;;;;19.52;14.63;;;;;;;;;;10128079;28;20071;-80
2024/03/17 14:00:01;;;;;;;17.30;12.90;;;;;;;;;;10128772;28;20496;-79
2024/03/17 14:05:07;;;;;;;16.40;14.35;;;;;;;;;;10129798;28;20052;-80
2024/03/17 14:09:59;;;;;;;15.13;13.57;;;;;;;;;;10129236;28;20586;-80
2024/03/17 14:14:52;;;;;;;14.93;13.27;;;;;;;;;;10128982;28;20048;-78
2024/03/17 14:19:45;;;;;;;14.95;11.80;;;;;;;;;;10125176;28;20044;-79
2024/03/17 14:24:37;;;;;;;14.85;12.07;;;;;;;;;;10128307;28;20087;-79
2024/03/17 14:29:30;;;;;;;13.25;11.82;;;;;;;;;;10127786;28;20044;-80
2024/03/17 14:34:23;;;;;;;13.30;11.90;;;;;;;;;;10122040;28;20488;-80
2024/03/17 14:39:15;;;;;;;12.93;11.57;;;;;;;;;;10127429;28;20107;-80
2024/03/17 14:44:08;;;;;;;12.50;11.20;;;;;;;;;;10128177;28;20053;-80
2024/03/17 14:49:01;;;;;;;12.32;11.07;;;;;;;;;;10127042;28;20445;-80
2024/03/17 14:53:56;;;;;;;11.60;10.45;;;;;;;;;;10126162;28;20155;-80
2024/03/17 14:58:50;;;;;;;13.40;11.50;;;;;;;;;;10125233;28;20040;-79
2024/03/17 15:03:43;;;;;;;16.17;11.52;;;;;;;;;;10124701;28;20060;-81
2024/03/17 15:08:36;;;;;;;12.30;11.00;;;;;;;;;;10121631;28;20066;-78
2024/03/17 15:13:28;;;;;;;12.20;11.00;;;;;;;;;;10122972;28;20048;-81
2024/03/17 15:18:23;;;;;;;14.40;11.18;;;;;;;;;;10112598;28;20135;-79
2024/03/17 15:23:16;;;;;;;15.48;11.57;;;;;;;;;;10126315;28;20060;-87
2024/03/17 15:28:08;;;;;;;13.40;11.20;;;;;;;;;;10125957;28;20178;-78
2024/03/17 15:33:01;;;;;;;13.23;11.88;;;;;;;;;;10127940;28;20059;-79
2024/03/17 15:37:52;;;;;;;12.95;11.73;;;;;;;;;;10122762;28;20098;-77
2024/03/17 15:42:51;;;;;;;13.85;12.35;;;;;;;;;;10125258;28;20052;-78
2024/03/17 15:47:44;;;;;;;20.10;12.18;;;;;;;;;;10133687;28;20557;-77
2024/03/17 15:52:38;;;;;;;13.77;12.30;;;;;;;;;;10133595;28;20045;-76
2024/03/17 15:57:30;;;;;;;13.68;12.20;;;;;;;;;;10131780;28;20076;-79
2024/03/17 16:02:24;;;;;;;13.25;11.85;;;;;;;;;;10132706;28;20068;-78
2024/03/17 16:07:16;;;;;;;14.20;12.65;;;;;;;;;;10133396;28;20056;-78
2024/03/17 16:12:10;;;;;;;14.70;12.75;;;;;;;;;;10121750;28;20053;-78
2024/03/17 16:17:07;;;;;;;14.65;13.13;;;;;;;;;;10124011;28;20044;-78
2024/03/17 16:22:00;;;;;;;13.17;11.83;;;;;;;;;;10127524;28;20048;-77
2024/03/17 16:26:54;;;;;;;14.73;13.10;;;;;;;;;;10125281;28;20102;-78
2024/03/17 16:31:49;;;;;;;14.63;13.05;;;;;;;;;;10138053;28;20044;-78
2024/03/17 16:36:43;;;;;;;14.82;12.80;;;;;;;;;;10124185;28;20051;-78
2024/03/17 16:41:36;;;;;;;14.85;13.32;;;;;;;;;;10122214;28;20045;-77
2024/03/17 16:46:49;;;;;;;14.52;13.07;;;;;;;;;;10120466;28;20501;-77
2024/03/17 16:51:41;;;;;;;16.65;13.05;;;;;;;;;;10117056;28;20488;-78
2024/03/17 16:56:35;;;;;;;15.13;12.57;;;;;;;;;;10123425;28;20098;-77
2024/03/17 17:01:28;;;;;;;11.73;9.82;;;;;;;;;;10119788;28;20099;-77
2024/03/17 17:06:21;;;;;;;9.15;8.25;;;;;;;;;;10124201;28;20500;-77
2024/03/17 17:11:16;;;;;;;49.03;37.85;;;;;;;;;;10127629;28;20056;-76
2024/03/17 17:16:08;;;;;;;12.27;10.15;;;;;;;;;;10120913;28;20509;-76
2024/03/17 17:21:01;;;;;;;12.73;10.35;;;;;;;;;;10123347;28;20179;-76
2024/03/17 17:25:54;;;;;;;13.25;11.07;;;;;;;;;;10119948;28;20064;-76
2024/03/17 17:30:49;;;;;;;13.35;11.35;;;;;;;;;;10124847;28;20044;-76
2024/03/17 17:35:42;;;;;;;25.65;17.50;;;;;;;;;;10123716;28;20412;-76
2024/03/17 17:40:38;;;;;;;28.17;22.63;;;;;;;;;;10125133;28;20052;-76
2024/03/17 17:45:31;;;;;;;19.52;14.98;;;;;;;;;;10123446;28;20049;-76
2024/03/17 17:50:23;;;;;;;28.95;18.92;;;;;;;;;;10114012;28;20048;-75
2024/03/17 17:55:16;;;;;;;29.73;23.00;;;;;;;;;;10118068;28;20048;-75
2024/03/17 18:00:10;;;;;;;25.27;19.33;;;;;;;;;;10121714;28;20505;-75
2024/03/17 18:05:03;;;;;;;24.58;19.60;;;;;;;;;;10123338;28;20109;-75
2024/03/17 18:09:56;;;;;;;20.13;18.23;;;;;;;;;;10088150;28;20045;-74
2024/03/17 18:14:48;;;;;;;28.20;24.25;;;;;;;;;;10124314;28;20108;-75
2024/03/17 18:19:43;;;;;;;21.05;17.20;;;;;;;;;;10119836;28;20040;-75
2024/03/17 18:24:35;;;;;;;24.95;19.92;;;;;;;;;;10120004;28;20048;-75
2024/03/17 18:29:28;;;;;;;34.13;26.08;;;;;;;;;;10120648;28;20068;-75
2024/03/17 18:34:21;;;;;;;26.77;20.48;;;;;;;;;;10120108;28;20083;-75
2024/03/17 18:39:14;;;;;;;25.85;19.40;;;;;;;;;;10121056;28;20106;-75
2024/03/17 18:44:07;;;;;;;24.85;19.20;;;;;;;;;;10120752;28;20052;-82
2024/03/17 18:49:04;;;;;;;26.80;20.98;;;;;;;;;;10113497;28;20075;-74
2024/03/17 18:53:57;;;;;;;27.02;21.60;;;;;;;;;;10121969;28;20052;-78
2024/03/17 18:58:49;;;;;;;29.40;24.58;;;;;;;;;;10119817;28;20082;-78
2024/03/17 19:03:43;;;;;;;29.30;22.92;;;;;;;;;;10121768;28;20118;-78
2024/03/17 19:08:35;;;;;;;28.67;21.55;;;;;;;;;;10123263;28;20182;-79
2024/03/17 19:13:28;;;;;;;33.15;23.20;;;;;;;;;;10124174;28;20055;-78
2024/03/17 19:18:21;;;;;;;38.17;24.15;;;;;;;;;;10118405;28;20048;-77
2024/03/17 19:23:14;;;;;;;35.15;28.25;;;;;;;;;;10113478;28;20061;-79
2024/03/17 19:28:07;;;;;;;35.38;29.05;;;;;;;;;;10121268;28;20040;-76
2024/03/17 19:32:59;;;;;;;33.13;27.75;;;;;;;;;;10114061;28;20144;-79
2024/03/17 19:37:52;;;;;;;35.35;27.77;;;;;;;;;;10108579;28;20991;-78
2024/03/17 19:42:47;;;;;;;45.55;31.70;;;;;;;;;;10113785;28;20051;-79
2024/03/17 19:47:38;;;;;;;46.92;35.97;;;;;;;;;;10119568;28;20101;-78
2024/03/17 19:52:30;;;;;;;48.60;36.50;;;;;;;;;;10117925;28;20424;-77
2024/03/17 19:57:23;;;;;;;39.67;32.13;;;;;;;;;;10124738;28;20084;-79
2024/03/17 20:02:15;;;;;;;45.00;34.35;;;;;;;;;;10124635;28;20044;-81
2024/03/17 20:07:11;;;;;;;45.45;33.22;;;;;;;;;;10119562;28;20511;-76
2024/03/17 20:12:06;;;;;;;46.65;32.63;;;;;;;;;;10113659;28;20048;-80
2024/03/17 20:16:58;;;;;;;37.53;29.08;;;;;;;;;;10118121;28;20052;-78
2024/03/17 20:21:50;;;;;;;36.50;27.92;;;;;;;;;;10119733;28;20104;-79
2024/03/17 20:26:44;;;;;;;38.20;28.08;;;;;;;;;;10124606;28;20048;-77
2024/03/17 20:31:40;;;;;;;34.40;25.95;;;;;;;;;;10123738;28;20044;-78
2024/03/17 20:36:32;;;;;;;29.83;22.48;;;;;;;;;;10130672;28;20047;-76
2024/03/17 20:41:25;;;;;;;27.30;24.02;;;;;;;;;;10129214;28;20053;-76
2024/03/17 20:46:19;;;;;;;31.70;24.90;;;;;;;;;;10131903;28;20044;-87
2024/03/17 20:51:11;;;;;;;28.90;23.48;;;;;;;;;;10116414;28;20052;-76
2024/03/17 20:56:05;;;;;;;31.67;23.05;;;;;;;;;;10129286;28;20118;-81
2024/03/17 21:00:58;;;;;;;34.25;24.20;;;;;;;;;;10118728;28;20504;-80
2024/03/17 21:05:50;;;;;;;31.30;24.52;;;;;;;;;;10134912;28;20037;-80
2024/03/17 21:10:45;;;;;;;29.13;24.15;;;;;;;;;;10129419;28;20504;-78
2024/03/17 21:15:38;;;;;;;44.25;31.90;;;;;;;;;;10124715;28;20440;-81
2024/03/17 21:20:30;;;;;;;31.13;24.98;;;;;;;;;;10125786;28;20052;-78
2024/03/17 21:25:22;;;;;;;37.58;27.05;;;;;;;;;;10129686;28;20052;-80
2024/03/17 21:30:15;;;;;;;38.50;27.83;;;;;;;;;;10121836;28;20059;-79
2024/03/17 21:35:29;;;;;;;37.70;28.20;;;;;;;;;;10113122;28;20075;-84
2024/03/17 21:40:23;;;;;;;52.25;36.60;;;;;;;;;;10115084;28;20052;-83
2024/03/17 21:45:15;;;;;;;35.67;26.88;;;;;;;;;;10116715;28;20098;-81
2024/03/17 21:50:10;;;;;;;35.60;26.42;;;;;;;;;;10106602;28;20492;-84
2024/03/17 21:55:03;;;;;;;34.28;26.27;;;;;;;;;;10091401;28;20846;-83
2024/03/17 21:59:57;;;;;;;28.65;24.85;;;;;;;;;;10109086;28;20044;-78
2024/03/17 22:04:50;;;;;;;32.97;22.90;;;;;;;;;;10105690;28;20500;-78
2024/03/17 22:09:42;;;;;;;28.20;22.00;;;;;;;;;;10108761;28;20052;-79
2024/03/17 22:14:36;;;;;;;26.90;21.88;;;;;;;;;;10108493;28;20674;-76
2024/03/17 22:19:29;;;;;;;37.47;23.15;;;;;;;;;;10106784;28;20069;-77
2024/03/17 22:24:21;;;;;;;28.10;22.27;;;;;;;;;;10114425;28;20056;-78
2024/03/17 22:29:15;;;;;;;29.23;23.92;;;;;;;;;;10109483;28;20051;-77
2024/03/17 22:34:07;;;;;;;30.98;22.00;;;;;;;;;;10117779;28;20045;-76
2024/03/17 22:38:59;;;;;;;25.38;20.50;;;;;;;;;;10115329;28;20044;-78
2024/03/17 22:43:51;;;;;;;26.92;21.60;;;;;;;;;;10114574;28;20381;-78
2024/03/17 22:48:46;;;;;;;26.98;22.45;;;;;;;;;;10115995;28;20047;-75
2024/03/17 22:53:43;;;;;;;26.15;22.45;;;;;;;;;;10112990;28;20041;-77
2024/03/17 22:58:40;;;;;;;32.83;24.08;;;;;;;;;;10108408;28;20048;-80
2024/03/17 23:03:34;;;;;;;59.63;34.90;;;;;;;;;;10110302;28;20059;-77
2024/03/17 23:08:28;;;;;;;60.20;33.47;;;;;;;;;;10114405;28;20408;-78
2024/03/17 23:13:21;;;;;;;47.88;31.95;;;;;;;;;;10112999;28;20060;-77
2024/03/17 23:18:14;;;;;;;46.47;31.40;;;;;;;;;;10114229;28;20055;-76
2024/03/17 23:23:08;;;;;;;44.42;26.95;;;;;;;;;;10116943;28;20048;-75
2024/03/17 23:28:00;;;;;;;34.63;27.15;;;;;;;;;;10109389;28;20056;-76
2024/03/17 23:32:52;;;;;;;32.17;27.05;;;;;;;;;;10114867;28;20048;-75
2024/03/17 23:37:44;;;;;;;27.52;22.33;;;;;;;;;;10113245;28;20044;-75
2024/03/17 23:42:39;;;;;;;22.30;19.27;;;;;;;;;;10114476;28;20052;-75
2024/03/17 23:47:32;;;;;;;22.92;17.25;;;;;;;;;;10113369;28;20052;-75
2024/03/17 23:52:25;;;;;;;19.10;15.00;;;;;;;;;;10112757;28;20064;-74
2024/03/17 23:57:18;;;;;;;17.45;12.85;;;;;;;;;;10108625;28;20059;-75
